Time;durP1;ratioP1;P1;durP2;ratioP2;P2;SDS_P1;SDS_P2;PMS_P1;PMS_P2;Temp;Humidity;BMP_temperature;BMP_pressure;BME280_temperature;BME280_humidity;BME280_pressure;Samples;Min_cycle;Max_cycle;Signal;HPM_P1;HPM_P2
2021/01/26 10:26:42;;;;;;;9.88;3.00;;;;;;;;;;4927652;22;20139;-81
2021/01/26 10:29:14;;;;;;;7.07;1.77;;;;;;;;;;5063559;22;20044;-82
2021/01/26 10:31:47;;;;;;;6.03;1.83;;;;;;;;;;5053371;28;20060;-82
2021/01/26 10:34:35;;;;;;;7.68;1.77;;;;;;;;;;5075752;22;20083;-82
2021/01/26 10:37:13;;;;;;;8.15;2.13;;;;;;;;;;5052605;28;20033;-83
2021/01/26 10:39:41;;;;;;;5.80;1.33;;;;;;;;;;5070467;28;20029;-85
2021/01/26 10:49:57;;;;;;;12.02;2.50;;;;;;;;;;3368929;26;20389;-87
2021/01/26 10:52:54;;;;;;;12.82;2.72;;;;;;;;;;5031614;28;20045;-86
2021/01/26 10:55:22;;;;;;;10.48;2.80;;;;;;;;;;4993361;28;20120;-87
2021/01/26 10:57:51;;;;;;;13.43;2.95;;;;;;;;;;5032581;28;20133;-85
2021/01/26 11:26:18;;;;;;;26.45;19.92;;;;;;;;;;4372553;26;20407;-85
2021/01/26 11:28:45;;;;;;;33.33;24.52;;;;;;;;;;5029542;28;20030;-82
2021/01/26 11:31:13;;;;;;;41.90;26.85;;;;;;;;;;5031865;28;20400;-79
2021/01/26 11:33:40;;;;;;;44.65;32.20;;;;;;;;;;5061603;22;20403;-82
2021/01/26 11:36:07;;;;;;;53.20;38.80;;;;;;;;;;5041746;28;20076;-82
2021/01/26 11:38:35;;;;;;;52.53;41.22;;;;;;;;;;5033101;28;20507;-82
2021/01/26 11:41:05;;;;;;;63.35;49.38;;;;;;;;;;5031657;28;20500;-82
2021/01/26 11:43:33;;;;;;;70.43;53.00;;;;;;;;;;5031719;28;20183;-82
2021/01/26 11:46:00;;;;;;;71.75;58.42;;;;;;;;;;5031785;28;20040;-81
2021/01/26 11:48:27;;;;;;;72.72;58.30;;;;;;;;;;5030606;28;20033;-79
2021/01/26 11:50:55;;;;;;;69.90;50.35;;;;;;;;;;5031404;28;20040;-79
2021/01/26 11:53:22;;;;;;;69.95;51.88;;;;;;;;;;5030983;28;20047;-78
2021/01/26 11:55:49;;;;;;;63.15;48.67;;;;;;;;;;5031090;28;20040;-80
2021/01/26 11:58:17;;;;;;;63.20;47.42;;;;;;;;;;5014861;28;20107;-80
2021/01/26 12:00:44;;;;;;;56.92;42.63;;;;;;;;;;5031564;28;20051;-82
2021/01/26 12:03:11;;;;;;;60.97;44.63;;;;;;;;;;5013616;28;20049;-81
2021/01/26 12:05:39;;;;;;;58.53;44.83;;;;;;;;;;5031599;28;20032;-81
2021/01/26 12:08:09;;;;;;;60.60;44.03;;;;;;;;;;5032210;28;20045;-81
2021/01/26 12:10:36;;;;;;;61.28;42.40;;;;;;;;;;5032124;28;20504;-79
2021/01/26 12:13:05;;;;;;;49.35;37.65;;;;;;;;;;5033441;28;20033;-83
2021/01/26 12:15:33;;;;;;;44.20;29.42;;;;;;;;;;5031340;28;20476;-82
2021/01/26 12:18:00;;;;;;;41.83;24.90;;;;;;;;;;5013054;28;20075;-83
2021/01/26 12:20:29;;;;;;;46.30;23.67;;;;;;;;;;5031704;28;20112;-82
2021/01/26 12:23:00;;;;;;;42.08;22.40;;;;;;;;;;5031236;28;20558;-82
2021/01/26 12:25:31;;;;;;;28.10;17.38;;;;;;;;;;5031045;28;20079;-83
2021/01/26 12:27:58;;;;;;;35.08;14.23;;;;;;;;;;5024709;28;20468;-84
2021/01/26 12:30:26;;;;;;;27.52;12.65;;;;;;;;;;5036889;28;20118;-79
2021/01/26 12:32:53;;;;;;;30.05;13.38;;;;;;;;;;5039631;22;20100;-81
2021/01/26 12:35:22;;;;;;;25.98;12.32;;;;;;;;;;5066388;22;20064;-83
2021/01/26 12:37:50;;;;;;;30.73;10.93;;;;;;;;;;5059411;22;20050;-81
2021/01/26 12:40:17;;;;;;;31.65;11.07;;;;;;;;;;5030488;28;20041;-79
2021/01/26 12:42:44;;;;;;;30.42;11.43;;;;;;;;;;4999580;22;20057;-81
2021/01/26 12:45:12;;;;;;;33.03;11.60;;;;;;;;;;5007802;28;20093;-82
2021/01/26 12:47:40;;;;;;;24.52;8.00;;;;;;;;;;4993690;28;20046;-79
2021/01/26 12:50:08;;;;;;;22.98;7.85;;;;;;;;;;5033433;22;20048;-79
2021/01/26 12:52:35;;;;;;;23.38;7.50;;;;;;;;;;5054501;28;20091;-79
2021/01/26 12:55:02;;;;;;;29.65;7.75;;;;;;;;;;5051949;28;20021;-78
2021/01/26 12:57:29;;;;;;;21.70;6.53;;;;;;;;;;5054649;28;20034;-77
2021/01/26 12:59:57;;;;;;;20.13;6.13;;;;;;;;;;5054859;28;20033;-78
2021/01/26 13:02:24;;;;;;;28.15;7.22;;;;;;;;;;5053677;28;20486;-78
2021/01/26 13:04:52;;;;;;;22.85;6.32;;;;;;;;;;5054371;28;20033;-79
2021/01/26 13:07:20;;;;;;;21.35;6.82;;;;;;;;;;5071318;22;20092;-79
2021/01/26 13:09:48;;;;;;;27.05;8.20;;;;;;;;;;5034613;28;20042;-79
2021/01/26 13:12:15;;;;;;;25.83;6.65;;;;;;;;;;5020310;28;20041;-79
2021/01/26 13:14:42;;;;;;;25.02;7.05;;;;;;;;;;5029196;28;20565;-80
2021/01/26 13:17:09;;;;;;;28.67;6.05;;;;;;;;;;5034097;28;20036;-80
2021/01/26 13:19:37;;;;;;;24.52;5.53;;;;;;;;;;5030969;28;20529;-80
2021/01/26 13:22:04;;;;;;;20.55;5.55;;;;;;;;;;5031626;28;20626;-81
2021/01/26 13:24:31;;;;;;;27.15;5.95;;;;;;;;;;5034615;28;20030;-80
2021/01/26 13:26:58;;;;;;;24.55;5.80;;;;;;;;;;5033520;28;20069;-81
2021/01/26 13:29:26;;;;;;;23.42;4.78;;;;;;;;;;5034223;28;20033;-81
2021/01/26 13:31:53;;;;;;;23.65;6.22;;;;;;;;;;5034044;28;20056;-81
2021/01/26 13:34:21;;;;;;;23.20;5.32;;;;;;;;;;5033567;28;20045;-81
2021/01/26 13:36:48;;;;;;;22.65;4.03;;;;;;;;;;5033985;28;20038;-81
2021/01/26 13:39:15;;;;;;;24.30;5.07;;;;;;;;;;5016368;28;20475;-81
2021/01/26 13:41:45;;;;;;;22.52;4.45;;;;;;;;;;5051840;22;20053;-81
2021/01/26 13:44:13;;;;;;;21.90;4.60;;;;;;;;;;5015774;28;20103;-81
2021/01/26 13:46:41;;;;;;;21.52;4.88;;;;;;;;;;5025633;28;20140;-81
2021/01/26 13:49:08;;;;;;;25.40;4.07;;;;;;;;;;5033790;28;20034;-81
2021/01/26 13:51:35;;;;;;;14.55;3.47;;;;;;;;;;5033776;28;20037;-81
2021/01/26 13:54:03;;;;;;;20.48;4.07;;;;;;;;;;5033702;28;20376;-81
2021/01/26 13:56:30;;;;;;;28.52;5.60;;;;;;;;;;5022429;28;20500;-81
2021/01/26 13:58:57;;;;;;;22.77;4.20;;;;;;;;;;5029469;28;20464;-81
2021/01/26 14:01:24;;;;;;;28.40;4.78;;;;;;;;;;5033516;28;20022;-81
2021/01/26 14:03:51;;;;;;;23.40;5.10;;;;;;;;;;5015668;28;20045;-82
2021/01/26 14:06:19;;;;;;;21.92;5.38;;;;;;;;;;5015953;28;20558;-81
2021/01/26 14:08:46;;;;;;;23.73;4.07;;;;;;;;;;5033324;28;20531;-82
2021/01/26 14:11:13;;;;;;;24.98;4.43;;;;;;;;;;5033135;28;20072;-82
2021/01/26 14:13:40;;;;;;;16.38;3.67;;;;;;;;;;5015919;28;20137;-82
2021/01/26 14:16:09;;;;;;;20.67;4.38;;;;;;;;;;5034009;28;20039;-82
2021/01/26 14:18:37;;;;;;;25.58;4.60;;;;;;;;;;5033049;28;20053;-82
2021/01/26 14:21:04;;;;;;;24.27;5.45;;;;;;;;;;5015295;28;20545;-81
2021/01/26 14:23:31;;;;;;;23.63;5.07;;;;;;;;;;5033225;28;20029;-82
2021/01/26 14:25:58;;;;;;;19.83;5.35;;;;;;;;;;5033105;28;20096;-82
2021/01/26 14:28:25;;;;;;;20.35;5.40;;;;;;;;;;5015127;28;20042;-82
2021/01/26 14:30:52;;;;;;;26.05;6.03;;;;;;;;;;5032927;28;20034;-81
2021/01/26 14:33:19;;;;;;;23.35;4.80;;;;;;;;;;5032557;28;20044;-81
2021/01/26 14:35:46;;;;;;;28.02;5.00;;;;;;;;;;5032869;28;20041;-81
2021/01/26 14:38:13;;;;;;;25.23;5.82;;;;;;;;;;5033294;28;20052;-81
2021/01/26 14:40:41;;;;;;;25.70;5.20;;;;;;;;;;5047728;22;20057;-81
2021/01/26 14:43:08;;;;;;;27.40;5.32;;;;;;;;;;5053066;22;20051;-81
2021/01/26 14:45:35;;;;;;;34.00;5.68;;;;;;;;;;5067831;22;20134;-81
2021/01/26 14:50:30;;;;;;;33.42;5.63;;;;;;;;;;5073734;22;20045;-81
2021/01/26 14:52:58;;;;;;;25.45;5.40;;;;;;;;;;5070566;28;20076;-81
2021/01/26 14:55:25;;;;;;;32.58;7.22;;;;;;;;;;5072399;28;20032;-81
2021/01/26 14:57:52;;;;;;;33.38;5.80;;;;;;;;;;5081666;22;20057;-81
2021/01/26 15:00:19;;;;;;;32.45;6.65;;;;;;;;;;5051835;28;20021;-81
2021/01/26 15:02:47;;;;;;;33.38;6.70;;;;;;;;;;5049595;28;20033;-81
2021/01/26 15:05:14;;;;;;;33.63;6.55;;;;;;;;;;5051509;28;20029;-81
2021/01/26 15:07:41;;;;;;;35.05;6.53;;;;;;;;;;5051926;28;20495;-81
2021/01/26 15:10:11;;;;;;;32.85;5.78;;;;;;;;;;5031744;28;20029;-81
2021/01/26 15:12:38;;;;;;;32.28;6.15;;;;;;;;;;5051201;28;20095;-82
2021/01/26 15:15:08;;;;;;;25.52;5.95;;;;;;;;;;5068936;22;20139;-81
2021/01/26 15:17:36;;;;;;;31.83;6.40;;;;;;;;;;5047133;28;20503;-81
2021/01/26 15:20:04;;;;;;;29.23;6.10;;;;;;;;;;5039647;28;20048;-81
2021/01/26 15:22:31;;;;;;;28.52;5.28;;;;;;;;;;5049111;28;20507;-81
2021/01/26 15:24:58;;;;;;;30.85;6.30;;;;;;;;;;5052003;28;20033;-81
2021/01/26 15:27:25;;;;;;;29.65;5.88;;;;;;;;;;5051107;28;20021;-81
2021/01/26 15:29:52;;;;;;;31.27;6.40;;;;;;;;;;5051942;28;20041;-81
2021/01/26 15:32:19;;;;;;;31.95;5.60;;;;;;;;;;5052095;28;20032;-81
2021/01/26 15:34:46;;;;;;;35.75;6.32;;;;;;;;;;5050283;28;20510;-81
2021/01/26 15:37:18;;;;;;;23.15;5.43;;;;;;;;;;5047541;28;20037;-81
2021/01/26 15:39:45;;;;;;;29.20;6.03;;;;;;;;;;5050450;28;20043;-81
2021/01/26 15:42:12;;;;;;;29.38;5.22;;;;;;;;;;5047337;28;20033;-81
2021/01/26 15:44:39;;;;;;;30.88;6.60;;;;;;;;;;5042328;28;20580;-81
2021/01/26 15:47:06;;;;;;;38.20;6.47;;;;;;;;;;5054155;22;20095;-81
2021/01/26 15:49:33;;;;;;;29.48;5.72;;;;;;;;;;5051968;28;20020;-82
2021/01/26 15:52:01;;;;;;;25.88;6.20;;;;;;;;;;5056641;28;20036;-81
2021/01/26 15:54:28;;;;;;;30.90;5.18;;;;;;;;;;5033789;28;20091;-81
2021/01/26 15:56:55;;;;;;;28.90;5.53;;;;;;;;;;5056412;28;20430;-81
2021/01/26 15:59:22;;;;;;;30.58;5.03;;;;;;;;;;5051851;28;20346;-81
2021/01/26 16:01:49;;;;;;;31.65;6.07;;;;;;;;;;5064230;28;20043;-81
2021/01/26 16:04:20;;;;;;;28.13;5.88;;;;;;;;;;5055649;28;20525;-82
2021/01/26 16:06:47;;;;;;;28.58;6.28;;;;;;;;;;5056662;28;20111;-82
2021/01/26 16:09:14;;;;;;;30.23;5.68;;;;;;;;;;5051070;28;20049;-82
2021/01/26 16:11:41;;;;;;;22.13;5.22;;;;;;;;;;5051932;28;20037;-81
2021/01/26 16:14:08;;;;;;;38.85;6.75;;;;;;;;;;5051228;28;20041;-81
2021/01/26 16:16:35;;;;;;;30.33;5.95;;;;;;;;;;5062003;28;20033;-81
2021/01/26 16:19:03;;;;;;;27.10;7.15;;;;;;;;;;5054057;28;20033;-81
2021/01/26 16:21:30;;;;;;;24.10;5.97;;;;;;;;;;5042600;28;20102;-81
2021/01/26 16:23:57;;;;;;;30.25;7.07;;;;;;;;;;5066181;28;20047;-82
2021/01/26 16:26:24;;;;;;;32.30;5.78;;;;;;;;;;5042877;28;20040;-81
2021/01/26 16:28:51;;;;;;;28.65;6.18;;;;;;;;;;5055618;28;20489;-81
2021/01/26 16:31:18;;;;;;;28.40;6.95;;;;;;;;;;5056177;28;20067;-81
2021/01/26 16:33:45;;;;;;;26.10;5.88;;;;;;;;;;5054898;28;20065;-82
2021/01/26 16:36:12;;;;;;;24.90;6.75;;;;;;;;;;5062138;28;20039;-81
2021/01/26 16:38:39;;;;;;;35.20;6.18;;;;;;;;;;5075503;28;20075;-81
2021/01/26 16:41:07;;;;;;;31.45;5.22;;;;;;;;;;5059053;28;20043;-82
2021/01/26 16:43:34;;;;;;;31.33;6.90;;;;;;;;;;5075273;28;20107;-81
2021/01/26 16:46:01;;;;;;;25.63;5.22;;;;;;;;;;5061909;28;20036;-81
2021/01/26 16:48:30;;;;;;;23.35;5.20;;;;;;;;;;5077612;22;20525;-81
2021/01/26 16:50:57;;;;;;;23.88;4.93;;;;;;;;;;5100098;22;20074;-81
2021/01/26 16:53:28;;;;;;;21.52;5.43;;;;;;;;;;5074712;22;20053;-82
2021/01/26 16:56:00;;;;;;;20.67;4.25;;;;;;;;;;5084656;22;20127;-81
2021/01/26 16:58:27;;;;;;;20.55;4.22;;;;;;;;;;5031073;28;20376;-83
2021/01/26 17:00:55;;;;;;;13.32;3.10;;;;;;;;;;5047892;28;20030;-81
2021/01/26 17:03:22;;;;;;;14.50;3.08;;;;;;;;;;5039826;28;20487;-81
2021/01/26 17:05:49;;;;;;;17.40;3.55;;;;;;;;;;5042737;22;20060;-81
2021/01/26 17:08:18;;;;;;;16.42;2.65;;;;;;;;;;5014285;28;20066;-81
2021/01/26 17:10:45;;;;;;;12.20;2.55;;;;;;;;;;5016494;28;20040;-81
2021/01/26 17:13:12;;;;;;;16.67;2.78;;;;;;;;;;5033815;28;20045;-81
2021/01/26 17:15:40;;;;;;;17.58;2.08;;;;;;;;;;5032442;28;20057;-81
2021/01/26 17:18:08;;;;;;;14.25;3.28;;;;;;;;;;5032169;28;20108;-81
2021/01/26 17:20:37;;;;;;;14.38;2.35;;;;;;;;;;5028936;28;20484;-81
2021/01/26 17:23:05;;;;;;;13.10;1.45;;;;;;;;;;5058072;23;20045;-81
2021/01/26 17:25:32;;;;;;;13.90;2.92;;;;;;;;;;5052054;28;20029;-80
2021/01/26 17:27:59;;;;;;;12.30;2.28;;;;;;;;;;5044755;28;20044;-81
2021/01/26 17:30:26;;;;;;;12.05;1.88;;;;;;;;;;5031949;28;20040;-81
2021/01/26 17:32:53;;;;;;;6.13;1.17;;;;;;;;;;5023387;28;20088;-82
2021/01/26 17:35:21;;;;;;;9.27;1.88;;;;;;;;;;5032044;28;20040;-80
2021/01/26 17:37:48;;;;;;;8.40;1.40;;;;;;;;;;5014401;28;20038;-81
2021/01/26 17:40:15;;;;;;;12.55;1.77;;;;;;;;;;5023319;28;20087;-81
2021/01/26 17:42:42;;;;;;;7.13;1.30;;;;;;;;;;5018456;28;20033;-80
2021/01/26 17:45:10;;;;;;;9.25;1.75;;;;;;;;;;5032093;28;20437;-81
2021/01/26 17:47:37;;;;;;;7.30;2.20;;;;;;;;;;5013902;28;20041;-81
2021/01/26 17:50:05;;;;;;;6.90;1.95;;;;;;;;;;5014394;28;20041;-79
2021/01/26 17:52:32;;;;;;;7.75;1.50;;;;;;;;;;5022736;28;20045;-80
2021/01/26 17:55:00;;;;;;;6.82;1.60;;;;;;;;;;5049876;22;20065;-78
2021/01/26 17:57:27;;;;;;;8.75;1.20;;;;;;;;;;5027401;28;20057;-81
2021/01/26 17:59:54;;;;;;;9.55;1.83;;;;;;;;;;4999677;28;20049;-80
2021/01/26 18:02:21;;;;;;;8.93;1.60;;;;;;;;;;4996564;28;20052;-80
2021/01/26 18:04:48;;;;;;;10.07;1.85;;;;;;;;;;4986325;28;20044;-80
2021/01/26 18:07:15;;;;;;;6.85;1.20;;;;;;;;;;5011759;28;20104;-79
2021/01/26 18:09:42;;;;;;;8.57;1.70;;;;;;;;;;5013460;28;20100;-80
2021/01/26 18:12:09;;;;;;;5.30;1.20;;;;;;;;;;5010622;28;20030;-79
2021/01/26 18:14:36;;;;;;;8.65;1.50;;;;;;;;;;5013011;28;20112;-80
2021/01/26 18:17:05;;;;;;;9.55;1.77;;;;;;;;;;5011384;28;20030;-80
2021/01/26 18:19:33;;;;;;;7.47;1.83;;;;;;;;;;5013691;28;20037;-80
2021/01/26 18:22:00;;;;;;;12.23;2.28;;;;;;;;;;5011478;28;20026;-79
2021/01/26 18:24:27;;;;;;;6.07;1.38;;;;;;;;;;5011059;28;20050;-78
2021/01/26 18:26:54;;;;;;;5.88;1.42;;;;;;;;;;5005228;28;20034;-80
2021/01/26 18:29:24;;;;;;;8.05;1.65;;;;;;;;;;5011500;28;20040;-80
2021/01/26 18:31:52;;;;;;;9.43;1.60;;;;;;;;;;4993762;28;20084;-78
2021/01/26 18:34:19;;;;;;;9.90;1.92;;;;;;;;;;5008221;28;20050;-80
2021/01/26 18:36:47;;;;;;;10.82;1.77;;;;;;;;;;5022433;28;20036;-80
2021/01/26 18:39:15;;;;;;;8.80;1.58;;;;;;;;;;5021684;28;20484;-81
2021/01/26 18:41:42;;;;;;;10.43;2.03;;;;;;;;;;4996963;28;20045;-80
2021/01/26 18:44:10;;;;;;;6.82;1.70;;;;;;;;;;5013216;28;20512;-81
2021/01/26 18:46:38;;;;;;;8.00;1.80;;;;;;;;;;5002233;28;20583;-80
2021/01/26 18:49:06;;;;;;;11.25;1.50;;;;;;;;;;5013070;28;20029;-81
2021/01/26 18:51:34;;;;;;;8.25;1.80;;;;;;;;;;5007657;28;20037;-80
2021/01/26 18:54:02;;;;;;;12.20;2.08;;;;;;;;;;5005992;28;20061;-80
2021/01/26 18:56:29;;;;;;;7.40;2.03;;;;;;;;;;5050267;22;20045;-80
2021/01/26 18:58:56;;;;;;;10.95;2.30;;;;;;;;;;5068297;22;20324;-77
2021/01/26 19:01:23;;;;;;;6.40;1.23;;;;;;;;;;5050746;28;20033;-80
2021/01/26 19:03:50;;;;;;;6.55;0.95;;;;;;;;;;5068753;22;20060;-80
2021/01/26 19:06:19;;;;;;;9.27;2.10;;;;;;;;;;5048551;28;20082;-80
2021/01/26 19:08:47;;;;;;;9.65;1.38;;;;;;;;;;5047549;28;20541;-81
2021/01/26 19:11:14;;;;;;;7.82;0.90;;;;;;;;;;5048260;28;20036;-81
2021/01/26 19:13:41;;;;;;;7.75;1.23;;;;;;;;;;5061615;22;20102;-82
2021/01/26 19:16:10;;;;;;;3.35;0.95;;;;;;;;;;5047068;28;20067;-80
2021/01/26 19:18:38;;;;;;;4.72;0.90;;;;;;;;;;5046778;28;20116;-81
2021/01/26 19:21:07;;;;;;;9.40;0.88;;;;;;;;;;5045650;28;20455;-81
2021/01/26 19:23:34;;;;;;;6.40;1.08;;;;;;;;;;5044071;28;20037;-81
2021/01/26 19:26:01;;;;;;;5.68;0.52;;;;;;;;;;5040301;28;20529;-81
2021/01/26 19:28:29;;;;;;;4.90;0.60;;;;;;;;;;5042383;28;20045;-81
2021/01/26 19:43:55;;;;;;;2.97;0.60;;;;;;;;;;4378307;26;20075;-82
2021/01/26 19:46:22;;;;;;;2.13;0.50;;;;;;;;;;5045612;28;20127;-82
2021/01/26 19:48:50;;;;;;;4.28;0.35;;;;;;;;;;5029255;28;20569;-82
2021/01/26 19:51:17;;;;;;;5.15;0.60;;;;;;;;;;5026284;28;20038;-81
2021/01/26 19:53:47;;;;;;;2.55;0.47;;;;;;;;;;5029570;28;20385;-81
2021/01/26 19:56:14;;;;;;;7.45;0.95;;;;;;;;;;5025155;28;20026;-79
2021/01/26 19:58:41;;;;;;;8.07;0.90;;;;;;;;;;5026362;28;20049;-82
2021/01/26 20:01:09;;;;;;;6.05;0.55;;;;;;;;;;5022329;28;20058;-82
2021/01/26 20:56:38;;;;;;;10.82;2.17;;;;;;;;;;4364763;26;20049;-80
2021/01/26 20:59:05;;;;;;;9.70;1.48;;;;;;;;;;5024054;28;20034;-81
2021/01/26 21:01:32;;;;;;;12.55;1.23;;;;;;;;;;5023632;28;20045;-81
2021/01/26 21:03:59;;;;;;;6.82;0.90;;;;;;;;;;5066163;22;20054;-80
2021/01/26 21:06:26;;;;;;;9.32;1.60;;;;;;;;;;5051518;22;20817;-81
2021/01/26 21:08:54;;;;;;;4.88;1.02;;;;;;;;;;5043078;28;20039;-80
2021/01/26 21:11:21;;;;;;;7.40;1.20;;;;;;;;;;5059350;22;20060;-80
2021/01/26 21:13:48;;;;;;;10.05;1.27;;;;;;;;;;5032945;28;20037;-78
2021/01/26 21:16:15;;;;;;;11.40;1.35;;;;;;;;;;5028492;28;20109;-78
2021/01/26 21:18:42;;;;;;;7.63;0.95;;;;;;;;;;5016150;28;20030;-79
2021/01/26 21:21:10;;;;;;;4.15;0.88;;;;;;;;;;5041613;22;20057;-80
2021/01/26 21:23:37;;;;;;;8.85;1.35;;;;;;;;;;5018125;28;20081;-79
2021/01/26 21:26:04;;;;;;;8.65;1.40;;;;;;;;;;5028177;28;20068;-79
2021/01/26 21:28:32;;;;;;;7.55;1.50;;;;;;;;;;5009559;28;20152;-79
2021/01/26 21:30:59;;;;;;;9.73;0.70;;;;;;;;;;5014934;28;20043;-78
2021/01/26 21:33:26;;;;;;;8.38;1.13;;;;;;;;;;4998107;28;20048;-80
2021/01/26 21:35:54;;;;;;;6.97;1.02;;;;;;;;;;5017584;28;20566;-78
2021/01/26 21:38:21;;;;;;;8.10;0.57;;;;;;;;;;5041269;22;20037;-84
2021/01/26 21:40:49;;;;;;;8.50;0.85;;;;;;;;;;5029189;28;20044;-80
2021/01/26 21:43:16;;;;;;;5.95;0.80;;;;;;;;;;5015773;28;20454;-82
2021/01/26 21:45:43;;;;;;;13.70;2.28;;;;;;;;;;5014425;28;20064;-77
2021/01/26 21:48:11;;;;;;;6.82;1.15;;;;;;;;;;5032504;28;20113;-78
2021/01/26 21:50:39;;;;;;;5.85;0.60;;;;;;;;;;5027787;28;20038;-78
2021/01/26 21:53:07;;;;;;;6.10;1.00;;;;;;;;;;5028927;28;20606;-77
2021/01/26 21:55:34;;;;;;;7.97;1.15;;;;;;;;;;5026393;28;20041;-78
2021/01/26 21:58:02;;;;;;;8.48;0.95;;;;;;;;;;5026025;28;22230;-77
2021/01/26 22:00:29;;;;;;;14.13;2.08;;;;;;;;;;5024339;28;20045;-77
2021/01/26 22:02:56;;;;;;;6.70;0.95;;;;;;;;;;5005235;28;20030;-78
2021/01/26 22:05:25;;;;;;;4.90;0.98;;;;;;;;;;5022705;28;20057;-77
2021/01/26 22:07:53;;;;;;;6.03;1.15;;;;;;;;;;5013866;28;20079;-77
